Terminal Aerodrome Forecast
Issued by NWS Cleveland, OH

Home | Current Version | Previous Version | Graphics & Text | Print | Product List | Glossary On
Versions: 1 2 3 4 5 6 7 8 9 10 11 12 13 14 15 16 17 18
817
FTUS41 KCLE 181720
TAFERI
TAF
KERI 181720Z 1818/1918 24014G21KT P6SM BKN025
      TEMPO 1820/1823 -SN
     FM190000 24014G21KT P6SM FEW025
     FM191400 21012KT P6SM SCT045=

USA.gov is the U.S. government's official web portal to all federal, state and local government web resources and services.